Time;durP1;ratioP1;P1;durP2;ratioP2;P2;SDS_P1;SDS_P2;PMS_P1;PMS_P2;Temp;Humidity;BMP_temperature;BMP_pressure;BME280_temperature;BME280_humidity;BME280_pressure;Samples;Min_cycle;Max_cycle;Signal;HPM_P1;HPM_P2
2022/08/19 00:01:54;;;;;;;10.00;8.77;;;15.70;99.90;;;;;;5021475;28;20068;-74
2022/08/19 00:04:25;;;;;;;9.63;8.60;;;15.60;99.90;;;;;;5018960;28;20124;-73
2022/08/19 00:06:51;;;;;;;9.85;8.00;;;15.70;99.90;;;;;;5021230;28;20080;-74
2022/08/19 00:09:19;;;;;;;9.80;8.38;;;15.60;99.90;;;;;;5026520;28;20098;-74
2022/08/19 00:11:45;;;;;;;9.95;9.05;;;15.60;99.90;;;;;;5022461;28;20053;-74
2022/08/19 00:14:13;;;;;;;11.05;8.70;;;15.60;99.90;;;;;;5021711;28;20040;-73
2022/08/19 00:16:41;;;;;;;11.05;9.80;;;15.60;99.90;;;;;;5020672;28;20034;-73
2022/08/19 00:19:07;;;;;;;10.55;9.45;;;15.60;99.90;;;;;;5021712;28;20045;-74
2022/08/19 00:21:38;;;;;;;12.27;10.23;;;15.60;99.90;;;;;;5018793;28;20044;-73
2022/08/19 00:24:03;;;;;;;11.57;9.65;;;15.60;99.90;;;;;;5017512;28;20159;-73
2022/08/19 00:26:29;;;;;;;11.05;9.77;;;15.50;99.90;;;;;;5027049;28;20137;-73
2022/08/19 00:28:55;;;;;;;12.55;9.10;;;15.50;99.90;;;;;;5017040;28;20073;-73
2022/08/19 00:31:22;;;;;;;13.15;9.95;;;15.50;99.90;;;;;;5020852;28;20037;-73
2022/08/19 00:33:51;;;;;;;11.32;9.15;;;15.40;99.90;;;;;;5001884;28;20065;-74
2022/08/19 00:36:17;;;;;;;11.75;9.48;;;15.40;99.90;;;;;;5025354;28;20041;-74
2022/08/19 00:38:43;;;;;;;9.95;8.98;;;15.30;99.90;;;;;;5021671;28;20044;-73
2022/08/19 00:41:12;;;;;;;12.27;10.45;;;15.30;99.90;;;;;;5026298;28;20056;-73
2022/08/19 00:43:39;;;;;;;10.90;9.85;;;15.30;99.90;;;;;;4999995;28;20524;-73
2022/08/19 00:46:05;;;;;;;9.80;8.80;;;15.30;99.90;;;;;;5028194;28;20075;-73
2022/08/19 00:48:32;;;;;;;11.82;9.98;;;15.30;99.90;;;;;;5017079;28;20073;-73
2022/08/19 00:50:58;;;;;;;11.10;9.88;;;15.30;99.90;;;;;;5020677;28;20036;-73
2022/08/19 00:53:27;;;;;;;11.73;10.52;;;15.30;99.90;;;;;;5015835;28;20477;-73
2022/08/19 00:55:56;;;;;;;11.20;10.05;;;15.30;99.90;;;;;;5023139;28;20049;-73
2022/08/19 00:58:27;;;;;;;11.55;10.48;;;15.30;99.90;;;;;;5023786;28;20049;-73
2022/08/19 01:00:53;;;;;;;10.45;9.43;;;15.20;99.90;;;;;;5019815;28;20049;-73
2022/08/19 01:03:20;;;;;;;12.13;10.48;;;15.20;99.90;;;;;;5029650;28;20136;-73
2022/08/19 01:05:48;;;;;;;13.07;10.60;;;15.20;99.90;;;;;;5024415;28;20111;-73
2022/08/19 01:08:16;;;;;;;12.05;10.55;;;15.20;99.90;;;;;;5020827;28;20048;-73
2022/08/19 01:10:45;;;;;;;11.93;10.65;;;15.20;99.90;;;;;;5022604;28;20151;-73
2022/08/19 01:13:14;;;;;;;13.98;11.07;;;15.10;99.90;;;;;;5019490;28;20073;-73
2022/08/19 01:15:44;;;;;;;15.02;11.25;;;15.10;99.90;;;;;;5020830;28;20538;-73
2022/08/19 01:18:13;;;;;;;11.82;10.32;;;15.10;99.90;;;;;;5025795;28;20140;-73
2022/08/19 01:20:40;;;;;;;12.70;10.38;;;15.00;99.90;;;;;;5026141;28;20485;-73
2022/08/19 01:23:06;;;;;;;12.35;11.05;;;15.10;99.90;;;;;;5029412;28;20095;-74
2022/08/19 01:25:46;;;;;;;12.73;10.68;;;15.00;99.90;;;;;;5021713;28;20069;-73
2022/08/19 01:28:29;;;;;;;12.00;10.50;;;15.00;99.90;;;;;;5015547;28;20091;-74
2022/08/19 01:30:55;;;;;;;13.20;11.07;;;15.00;99.90;;;;;;5030021;28;20047;-73
2022/08/19 01:33:21;;;;;;;12.25;10.50;;;15.00;99.90;;;;;;5028553;28;20042;-73
2022/08/19 01:35:51;;;;;;;12.00;10.85;;;15.00;99.90;;;;;;5019451;28;20056;-73
2022/08/19 01:38:38;;;;;;;12.05;10.70;;;14.90;99.90;;;;;;5021869;28;20045;-73
2022/08/19 01:41:04;;;;;;;12.70;11.32;;;14.90;99.90;;;;;;5018849;28;20497;-73
2022/08/19 01:43:29;;;;;;;13.18;11.15;;;14.90;99.90;;;;;;5006463;28;20060;-73
2022/08/19 01:45:55;;;;;;;14.23;11.57;;;14.90;99.90;;;;;;5022886;28;20041;-73
2022/08/19 01:48:21;;;;;;;13.48;10.80;;;14.80;99.90;;;;;;5010807;28;20081;-74
2022/08/19 01:50:47;;;;;;;14.02;11.63;;;14.80;99.90;;;;;;5025667;28;20060;-74
2022/08/19 01:53:13;;;;;;;12.40;11.10;;;14.80;99.90;;;;;;5028220;28;20128;-74
2022/08/19 01:55:42;;;;;;;13.65;11.43;;;14.80;99.90;;;;;;5027068;28;20572;-74
2022/08/19 01:58:16;;;;;;;12.02;10.45;;;14.80;99.90;;;;;;5032998;28;20080;-74
2022/08/19 02:00:43;;;;;;;12.55;11.25;;;14.80;99.90;;;;;;5026356;28;20045;-74
2022/08/19 02:03:09;;;;;;;11.80;10.63;;;14.70;99.90;;;;;;5027238;28;20044;-73
2022/08/19 02:05:35;;;;;;;12.38;11.15;;;14.80;99.90;;;;;;5036820;28;20045;-74
2022/08/19 02:08:01;;;;;;;11.82;10.40;;;14.70;99.90;;;;;;5028792;28;20118;-74
2022/08/19 02:10:26;;;;;;;13.15;11.80;;;14.70;99.90;;;;;;5023900;28;20088;-74
2022/08/19 02:12:52;;;;;;;12.93;11.63;;;14.70;99.90;;;;;;5026117;28;20395;-74
2022/08/19 02:15:19;;;;;;;15.55;13.00;;;14.70;99.90;;;;;;5010310;28;20867;-74
2022/08/19 02:17:46;;;;;;;12.98;11.80;;;14.70;99.90;;;;;;5025552;28;20140;-74
2022/08/19 02:20:13;;;;;;;12.60;11.30;;;14.70;99.90;;;;;;5004674;28;20058;-74
2022/08/19 02:22:41;;;;;;;12.32;10.85;;;14.70;99.90;;;;;;5021859;28;20073;-73
2022/08/19 02:25:08;;;;;;;12.00;10.52;;;14.70;99.90;;;;;;5022740;28;20083;-73
2022/08/19 02:27:34;;;;;;;11.65;10.25;;;14.70;99.90;;;;;;5021774;28;20046;-74
2022/08/19 02:30:00;;;;;;;14.68;12.07;;;14.60;99.90;;;;;;5025286;28;20033;-73
2022/08/19 02:32:27;;;;;;;13.73;10.95;;;14.60;99.90;;;;;;5010359;28;20088;-74
2022/08/19 02:34:53;;;;;;;11.77;10.45;;;14.60;99.90;;;;;;5030673;28;20046;-74
2022/08/19 02:40:03;;;;;;;15.27;13.02;;;14.50;99.90;;;;;;5024054;28;20530;-73
2022/08/19 02:42:29;;;;;;;14.75;13.25;;;14.50;99.90;;;;;;5023417;28;20041;-74
2022/08/19 02:44:55;;;;;;;18.60;12.25;;;14.50;99.90;;;;;;5023578;28;20126;-74
2022/08/19 02:47:21;;;;;;;15.35;13.68;;;14.50;99.90;;;;;;5026951;28;20048;-73
2022/08/19 02:49:49;;;;;;;17.75;13.90;;;14.50;99.90;;;;;;5029452;28;20044;-73
2022/08/19 02:52:15;;;;;;;15.63;12.90;;;14.50;99.90;;;;;;5021439;28;20077;-73
2022/08/19 02:54:41;;;;;;;13.25;11.82;;;14.50;99.90;;;;;;5027396;28;20040;-73
2022/08/19 02:57:07;;;;;;;14.70;11.50;;;14.50;99.90;;;;;;5025761;28;20099;-73
2022/08/19 02:59:33;;;;;;;12.80;11.45;;;14.50;99.90;;;;;;5019756;28;20072;-73
2022/08/19 03:01:59;;;;;;;12.32;11.07;;;14.50;99.90;;;;;;5010139;28;20049;-73
2022/08/19 03:04:25;;;;;;;11.82;10.63;;;14.50;99.90;;;;;;5022374;28;20048;-74
2022/08/19 03:06:51;;;;;;;11.25;10.07;;;14.50;99.90;;;;;;5022583;28;20045;-73
2022/08/19 03:09:19;;;;;;;12.73;9.85;;;14.50;99.90;;;;;;5020296;28;20052;-73
2022/08/19 03:11:45;;;;;;;11.05;9.95;;;14.40;99.90;;;;;;5031102;28;20082;-73
2022/08/19 03:14:12;;;;;;;11.38;10.35;;;14.40;99.90;;;;;;5025338;28;20076;-73
2022/08/19 03:16:44;;;;;;;10.90;9.75;;;14.40;99.90;;;;;;5019938;28;20346;-74
2022/08/19 03:19:10;;;;;;;10.25;9.25;;;14.40;99.90;;;;;;5017184;28;20147;-74
2022/08/19 03:21:36;;;;;;;14.35;12.88;;;14.40;99.90;;;;;;5032151;28;20124;-73
2022/08/19 03:24:05;;;;;;;12.43;11.25;;;14.40;99.90;;;;;;5012381;28;20064;-74
2022/08/19 03:26:31;;;;;;;14.15;11.75;;;14.40;99.90;;;;;;5025694;28;20034;-74
2022/08/19 03:29:00;;;;;;;12.93;11.63;;;14.40;99.90;;;;;;5021922;28;20037;-74
2022/08/19 03:31:27;;;;;;;12.65;11.45;;;14.40;99.90;;;;;;5029086;28;20090;-73
2022/08/19 03:33:52;;;;;;;13.77;12.38;;;14.40;99.90;;;;;;5021247;28;20056;-73
2022/08/19 03:36:24;;;;;;;15.05;13.48;;;14.40;99.90;;;;;;5029432;28;20041;-73
2022/08/19 03:38:54;;;;;;;12.80;11.32;;;14.30;99.90;;;;;;5016129;28;20069;-73
2022/08/19 03:41:26;;;;;;;14.32;11.68;;;14.30;99.90;;;;;;5004995;28;20152;-73
2022/08/19 03:43:53;;;;;;;14.35;12.35;;;14.30;99.90;;;;;;5025980;28;20029;-73
2022/08/19 03:46:23;;;;;;;15.15;12.23;;;14.30;99.90;;;;;;5022836;28;20048;-73
2022/08/19 03:48:54;;;;;;;15.32;12.77;;;14.30;99.90;;;;;;5025940;28;20037;-73
2022/08/19 03:51:23;;;;;;;13.20;11.65;;;14.30;99.90;;;;;;5025325;28;20512;-73
2022/08/19 03:53:48;;;;;;;13.02;11.68;;;14.20;99.90;;;;;;5005666;28;20040;-73
2022/08/19 03:56:15;;;;;;;13.95;12.50;;;14.30;99.90;;;;;;5020483;28;20057;-73
2022/08/19 03:58:41;;;;;;;16.38;13.57;;;14.20;99.90;;;;;;5020005;28;20536;-73
2022/08/19 04:01:09;;;;;;;13.18;11.80;;;14.20;99.90;;;;;;5017504;28;20044;-73
2022/08/19 04:03:38;;;;;;;13.20;11.15;;;14.20;99.90;;;;;;5008053;28;20054;-73
2022/08/19 04:06:12;;;;;;;15.18;13.55;;;14.20;99.90;;;;;;5024270;28;20542;-73
2022/08/19 04:08:38;;;;;;;15.50;13.00;;;14.20;99.90;;;;;;5027541;28;20527;-73
2022/08/19 04:11:07;;;;;;;14.57;13.07;;;14.20;99.90;;;;;;5018726;28;20037;-73
2022/08/19 04:13:33;;;;;;;15.07;13.25;;;14.20;99.90;;;;;;5028760;28;20202;-73
2022/08/19 04:16:00;;;;;;;14.15;12.65;;;14.20;99.90;;;;;;5040163;28;20045;-73
2022/08/19 04:18:25;;;;;;;14.93;13.23;;;14.20;99.90;;;;;;5023690;28;20084;-73
2022/08/19 04:20:51;;;;;;;15.82;14.15;;;14.10;99.90;;;;;;5019748;28;20054;-73
2022/08/19 04:23:18;;;;;;;17.90;15.15;;;14.10;99.90;;;;;;5021134;28;20041;-73
2022/08/19 04:25:44;;;;;;;17.05;15.18;;;14.10;99.90;;;;;;5017929;28;20048;-73
2022/08/19 04:28:12;;;;;;;20.23;16.10;;;14.10;99.90;;;;;;5019101;28;20124;-73
2022/08/19 04:30:44;;;;;;;20.15;15.48;;;14.10;99.90;;;;;;5016066;28;20091;-73
2022/08/19 04:33:11;;;;;;;22.63;16.92;;;14.10;99.90;;;;;;5040215;28;20500;-73
2022/08/19 04:35:43;;;;;;;17.50;13.82;;;14.10;99.90;;;;;;5018876;28;20253;-73
2022/08/19 04:38:09;;;;;;;14.60;11.82;;;14.10;99.90;;;;;;5024349;28;20041;-73
2022/08/19 04:43:28;;;;;;;16.73;12.52;;;14.10;99.90;;;;;;5023744;28;20439;-73
2022/08/19 04:45:54;;;;;;;14.88;10.93;;;14.00;99.90;;;;;;5025908;28;20060;-73
2022/08/19 04:48:25;;;;;;;15.18;11.80;;;14.10;99.90;;;;;;5020464;28;20045;-73
2022/08/19 04:50:58;;;;;;;17.67;13.00;;;14.00;99.90;;;;;;5017520;28;20361;-74
2022/08/19 04:53:29;;;;;;;14.60;11.23;;;14.10;99.90;;;;;;5006829;28;20076;-73
2022/08/19 04:55:56;;;;;;;12.07;10.65;;;14.00;99.90;;;;;;5028349;28;20077;-74
2022/08/19 04:58:23;;;;;;;14.40;11.00;;;14.00;99.90;;;;;;5042854;28;20057;-73
2022/08/19 05:00:49;;;;;;;12.45;10.80;;;14.10;99.90;;;;;;5025662;28;20052;-73
2022/08/19 05:03:16;;;;;;;12.73;10.43;;;14.00;99.90;;;;;;5042084;28;20041;-74
2022/08/19 05:05:44;;;;;;;14.15;11.43;;;14.10;99.90;;;;;;5025044;28;20041;-73
2022/08/19 05:08:11;;;;;;;12.73;10.80;;;14.10;99.90;;;;;;5024754;28;20045;-73
2022/08/19 05:10:40;;;;;;;14.95;11.65;;;14.10;99.90;;;;;;5011005;28;20090;-73
2022/08/19 05:13:06;;;;;;;14.13;11.27;;;14.10;99.90;;;;;;5030985;28;20065;-73
2022/08/19 05:15:31;;;;;;;11.57;10.23;;;14.20;99.90;;;;;;5022738;28;20480;-74
2022/08/19 05:23:26;;;;;;;16.95;13.27;;;14.30;99.90;;;;;;5041984;28;20080;-73
2022/08/19 05:25:52;;;;;;;12.25;10.50;;;14.30;99.90;;;;;;5024234;28;20072;-73
2022/08/19 05:28:19;;;;;;;12.75;11.40;;;14.40;99.90;;;;;;5023335;28;20052;-73
2022/08/19 05:30:45;;;;;;;13.15;11.48;;;14.40;99.90;;;;;;5027175;28;20045;-73
2022/08/19 05:33:11;;;;;;;16.33;13.45;;;14.50;99.90;;;;;;5026202;28;20139;-73
2022/08/19 05:35:39;;;;;;;15.13;13.13;;;14.70;99.90;;;;;;5022481;28;20044;-74
2022/08/19 05:38:07;;;;;;;16.75;13.50;;;14.80;99.90;;;;;;5024317;28;20036;-74
2022/08/19 05:40:38;;;;;;;20.70;15.95;;;14.80;99.90;;;;;;5020638;28;20034;-74
2022/08/19 05:43:06;;;;;;;20.00;16.55;;;15.20;99.90;;;;;;5024942;28;20048;-74
2022/08/19 05:45:37;;;;;;;21.25;17.98;;;15.50;99.90;;;;;;5021700;28;20512;-73
2022/08/19 05:48:03;;;;;;;20.02;17.80;;;15.90;99.90;;;;;;5027998;28;20060;-74
2022/08/19 05:50:29;;;;;;;21.08;18.15;;;16.30;99.90;;;;;;5023904;28;20041;-74
2022/08/19 05:52:55;;;;;;;21.38;19.10;;;16.70;99.90;;;;;;5022807;28;20114;-74
2022/08/19 05:55:22;;;;;;;20.42;18.23;;;16.80;99.90;;;;;;5025998;28;20033;-74
2022/08/19 05:57:48;;;;;;;21.00;18.55;;;16.90;99.90;;;;;;5020278;28;20434;-74
2022/08/19 06:00:14;;;;;;;21.67;19.50;;;17.00;99.90;;;;;;5030375;28;20041;-74
2022/08/19 06:02:40;;;;;;;22.48;19.33;;;17.00;99.90;;;;;;5034473;28;20045;-74
2022/08/19 06:05:08;;;;;;;22.77;19.83;;;17.10;99.90;;;;;;5030668;28;20463;-74
2022/08/19 06:07:39;;;;;;;20.48;18.25;;;17.20;99.90;;;;;;5023340;28;20528;-74
2022/08/19 06:10:07;;;;;;;20.17;18.17;;;17.20;99.90;;;;;;5023632;28;20485;-75
2022/08/19 06:12:34;;;;;;;22.35;19.95;;;17.20;99.90;;;;;;5025237;28;20128;-74
2022/08/19 06:15:07;;;;;;;21.77;18.92;;;17.30;99.90;;;;;;5024938;28;20095;-75
2022/08/19 06:17:34;;;;;;;21.02;18.58;;;17.40;99.90;;;;;;5029750;28;20051;-74
2022/08/19 06:20:00;;;;;;;19.60;17.75;;;17.50;99.90;;;;;;5021612;28;20129;-75
2022/08/19 06:22:27;;;;;;;21.00;18.88;;;17.60;99.90;;;;;;5011734;28;20045;-74
2022/08/19 06:24:53;;;;;;;19.98;18.05;;;17.70;99.90;;;;;;5010539;28;20044;-74
2022/08/19 06:27:20;;;;;;;20.70;18.15;;;17.80;99.90;;;;;;5005566;28;20091;-74
2022/08/19 06:29:46;;;;;;;20.33;18.33;;;17.90;99.90;;;;;;5023347;28;20794;-74
2022/08/19 06:32:14;;;;;;;20.35;18.08;;;17.90;99.90;;;;;;5028379;28;20489;-74
2022/08/19 06:34:40;;;;;;;21.27;18.23;;;18.00;99.90;;;;;;5025016;28;20069;-74
2022/08/19 06:37:07;;;;;;;20.92;18.75;;;18.10;99.90;;;;;;5023824;28;20087;-74
2022/08/19 06:39:38;;;;;;;21.08;18.85;;;18.20;99.90;;;;;;5027659;28;20049;-74
2022/08/19 06:42:06;;;;;;;20.73;18.23;;;18.30;99.90;;;;;;5027168;28;20063;-75
2022/08/19 06:44:35;;;;;;;19.80;17.80;;;18.30;99.90;;;;;;5020675;28;20049;-75
2022/08/19 06:47:04;;;;;;;20.48;18.27;;;18.50;99.90;;;;;;5027912;28;20060;-74
2022/08/19 06:49:32;;;;;;;20.02;17.98;;;18.60;99.90;;;;;;5022035;28;20049;-74
2022/08/19 06:51:59;;;;;;;19.02;16.77;;;18.70;99.90;;;;;;5016943;28;20055;-74
2022/08/19 06:54:26;;;;;;;18.98;17.10;;;18.90;99.90;;;;;;5022659;28;20120;-73
2022/08/19 06:56:52;;;;;;;17.90;16.20;;;19.10;99.90;;;;;;5016437;28;20459;-74
2022/08/19 06:59:22;;;;;;;19.58;17.58;;;19.20;99.90;;;;;;5025788;28;20584;-74
2022/08/19 07:01:51;;;;;;;18.60;16.70;;;19.30;99.90;;;;;;5023543;28;20050;-74
2022/08/19 07:04:25;;;;;;;16.75;15.00;;;19.40;99.90;;;;;;5031139;28;20040;-74
2022/08/19 07:07:12;;;;;;;17.02;15.10;;;19.60;99.90;;;;;;5021090;28;20051;-74
2022/08/19 07:09:40;;;;;;;17.02;15.10;;;19.80;99.90;;;;;;5021418;28;20057;-74
2022/08/19 07:12:09;;;;;;;15.15;13.60;;;20.00;99.90;;;;;;5015542;28;20057;-75
2022/08/19 07:14:37;;;;;;;15.70;13.63;;;20.20;99.90;;;;;;5003262;28;20072;-75
2022/08/19 07:17:08;;;;;;;12.77;11.55;;;20.30;99.90;;;;;;5017197;28;20103;-75
2022/08/19 07:19:35;;;;;;;15.23;13.82;;;20.40;99.90;;;;;;5026588;28;20045;-75
2022/08/19 07:22:04;;;;;;;14.07;12.52;;;20.60;99.90;;;;;;5025823;28;20048;-75
2022/08/19 07:24:31;;;;;;;13.05;11.88;;;20.70;99.90;;;;;;5043410;28;20073;-75
2022/08/19 07:27:00;;;;;;;13.95;12.65;;;20.80;99.90;;;;;;5014983;28;20036;-75
2022/08/19 07:29:27;;;;;;;14.60;13.13;;;20.90;99.90;;;;;;5026300;28;20057;-75
2022/08/19 07:31:58;;;;;;;14.00;12.75;;;21.10;99.90;;;;;;5004977;28;20547;-75
2022/08/19 07:34:25;;;;;;;12.15;11.05;;;21.20;99.90;;;;;;5002159;28;20046;-75
2022/08/19 07:36:52;;;;;;;13.63;12.50;;;21.40;99.90;;;;;;5017278;28;20042;-75
2022/08/19 07:39:30;;;;;;;13.98;12.57;;;21.60;99.90;;;;;;5016686;28;20042;-75
2022/08/19 07:41:57;;;;;;;12.02;10.95;;;21.70;99.90;;;;;;5018942;28;20062;-75
2022/08/19 07:44:23;;;;;;;11.75;10.70;;;21.80;99.90;;;;;;5021796;28;20500;-74
2022/08/19 07:46:56;;;;;;;12.93;11.48;;;22.00;99.90;;;;;;5022495;28;20567;-75
2022/08/19 07:49:22;;;;;;;11.13;10.05;;;22.20;99.90;;;;;;5024524;28;20048;-74
2022/08/19 07:51:54;;;;;;;10.55;9.52;;;22.50;99.90;;;;;;5003801;28;20041;-75
2022/08/19 07:54:22;;;;;;;9.50;8.70;;;22.80;99.90;;;;;;5024085;28;20054;-75
2022/08/19 07:56:50;;;;;;;8.70;7.90;;;23.30;99.90;;;;;;5021235;28;20092;-75
2022/08/19 07:59:17;;;;;;;9.48;8.40;;;23.80;99.90;;;;;;5022205;28;20139;-75
2022/08/19 08:01:43;;;;;;;10.07;9.18;;;24.30;99.90;;;;;;5024516;28;20080;-75
2022/08/19 08:09:41;;;;;;;7.38;5.93;;;26.30;99.90;;;;;;5027091;28;20136;-75
2022/08/19 08:12:14;;;;;;;8.05;7.00;;;26.80;99.90;;;;;;5017529;28;20064;-75
2022/08/19 08:14:52;;;;;;;8.00;7.20;;;27.20;99.90;;;;;;5023380;28;20163;-75
2022/08/19 08:17:24;;;;;;;8.38;7.57;;;27.60;99.90;;;;;;5039908;28;20124;-75
2022/08/19 08:19:50;;;;;;;8.23;6.68;;;28.00;99.90;;;;;;5027947;28;20051;-74
2022/08/19 08:25:22;;;;;;;9.50;8.60;;;28.60;99.90;;;;;;4945740;28;20039;-74
2022/08/19 08:27:49;;;;;;;9.45;8.55;;;28.70;98.90;;;;;;5004921;28;20054;-74
2022/08/19 08:30:26;;;;;;;11.18;10.05;;;28.70;99.20;;;;;;5006881;28;20495;-74
2022/08/19 08:32:52;;;;;;;10.57;9.57;;;28.90;97.80;;;;;;5037848;28;20206;-74
2022/08/19 08:35:20;;;;;;;11.30;10.10;;;29.10;97.80;;;;;;5026516;28;20151;-74
2022/08/19 08:37:51;;;;;;;11.13;10.13;;;29.20;97.20;;;;;;5025749;28;20067;-74
2022/08/19 08:40:38;;;;;;;10.68;9.57;;;29.40;94.60;;;;;;5023807;28;20136;-74
2022/08/19 08:43:28;;;;;;;11.73;10.63;;;29.60;94.20;;;;;;5011697;28;20061;-74
2022/08/19 08:46:03;;;;;;;11.15;10.23;;;30.00;93.20;;;;;;5020765;28;20088;-74
2022/08/19 08:48:50;;;;;;;10.98;9.57;;;30.20;91.50;;;;;;5016703;28;20056;-74
2022/08/19 08:51:48;;;;;;;11.20;10.20;;;30.40;88.20;;;;;;5022821;28;20048;-74
2022/08/19 08:54:19;;;;;;;11.57;10.52;;;30.30;86.70;;;;;;5014733;28;20072;-74
2022/08/19 08:56:48;;;;;;;13.07;11.88;;;30.10;87.80;;;;;;5024047;28;20048;-74
2022/08/19 08:59:24;;;;;;;11.77;10.68;;;30.10;83.90;;;;;;5021639;28;20049;-74
2022/08/19 09:01:49;;;;;;;10.85;9.75;;;30.00;86.60;;;;;;5022775;28;20323;-74
2022/08/19 09:04:16;;;;;;;8.98;8.07;;;30.10;86.80;;;;;;5026048;28;20044;-74
2022/08/19 09:06:58;;;;;;;8.60;7.80;;;30.30;84.90;;;;;;5028040;28;20433;-74
2022/08/19 09:09:36;;;;;;;8.87;7.93;;;30.30;82.70;;;;;;5027926;28;20057;-74
2022/08/19 09:12:30;;;;;;;7.35;6.63;;;30.40;80.60;;;;;;5020797;28;20049;-74
2022/08/19 09:15:01;;;;;;;;;;;30.60;80.20;;;;;;5023525;28;21793;-74
2022/08/19 09:17:33;;;;;;;7.68;6.90;;;30.80;81.40;;;;;;5015260;28;19928;-74
2022/08/19 09:20:10;;;;;;;7.80;7.10;;;30.90;82.00;;;;;;5025880;28;20033;-74
2022/08/19 09:22:43;;;;;;;7.20;6.50;;;31.10;80.90;;;;;;5027671;28;20104;-74
2022/08/19 09:25:12;;;;;;;8.45;7.65;;;31.30;75.40;;;;;;5045244;28;20052;-75
2022/08/19 09:27:39;;;;;;;6.97;6.38;;;31.30;74.30;;;;;;5008860;28;20175;-75
2022/08/19 09:30:07;;;;;;;8.35;7.60;;;31.30;75.50;;;;;;5022851;28;20636;-74
2022/08/19 09:32:32;;;;;;;6.72;6.03;;;31.30;74.90;;;;;;5020357;28;20108;-74
2022/08/19 09:35:01;;;;;;;6.10;5.47;;;31.10;73.50;;;;;;5018414;28;20120;-74
2022/08/19 09:37:27;;;;;;;7.03;6.32;;;30.90;74.00;;;;;;5018102;28;20041;-74
2022/08/19 09:39:53;;;;;;;7.55;6.95;;;30.80;72.60;;;;;;5032807;28;20041;-75
2022/08/19 09:42:19;;;;;;;6.80;6.25;;;30.70;72.60;;;;;;5031282;28;20128;-75
2022/08/19 09:44:46;;;;;;;7.32;6.72;;;30.70;73.50;;;;;;5030062;28;20396;-75
2022/08/19 09:47:13;;;;;;;8.73;7.93;;;30.80;73.10;;;;;;5034122;28;20041;-74
2022/08/19 09:49:40;;;;;;;7.45;6.80;;;30.70;72.70;;;;;;5028903;28;20134;-75
2022/08/19 09:52:08;;;;;;;6.65;6.05;;;30.50;73.00;;;;;;5029678;28;20034;-75
2022/08/19 09:54:34;;;;;;;6.85;6.18;;;30.60;72.00;;;;;;5025741;28;20038;-75
2022/08/19 09:57:00;;;;;;;7.68;7.05;;;30.70;71.00;;;;;;5028542;28;20059;-75
2022/08/19 09:59:27;;;;;;;8.68;7.88;;;30.90;71.40;;;;;;5023131;28;20038;-75
2022/08/19 10:01:53;;;;;;;7.13;6.43;;;31.00;69.30;;;;;;5015984;28;20049;-74
2022/08/19 10:04:20;;;;;;;7.40;5.40;;;30.90;71.90;;;;;;5031244;28;20485;-73
2022/08/19 10:06:48;;;;;;;5.43;4.93;;;31.10;70.60;;;;;;5008718;28;20040;-75
2022/08/19 10:09:16;;;;;;;6.20;5.65;;;31.20;69.00;;;;;;5022180;28;20045;-75
2022/08/19 10:11:46;;;;;;;6.60;4.90;;;31.20;69.10;;;;;;5029075;28;20048;-75
2022/08/19 10:14:11;;;;;;;4.78;4.38;;;31.40;69.60;;;;;;5017943;28;20047;-73
2022/08/19 10:16:38;;;;;;;6.47;5.88;;;31.60;68.00;;;;;;5031367;28;20037;-75
2022/08/19 10:19:04;;;;;;;9.13;6.70;;;31.70;67.90;;;;;;5035717;28;20033;-75
2022/08/19 10:21:32;;;;;;;7.82;7.03;;;31.90;68.60;;;;;;5029495;28;20087;-74
2022/08/19 10:24:03;;;;;;;7.55;6.95;;;32.00;65.70;;;;;;5023050;28;20037;-74
2022/08/19 10:26:32;;;;;;;6.40;5.90;;;31.70;63.70;;;;;;5031282;28;20057;-74
2022/08/19 10:28:58;;;;;;;6.78;6.18;;;31.30;65.90;;;;;;5022738;28;20116;-74
2022/08/19 10:31:29;;;;;;;8.15;7.45;;;31.20;67.50;;;;;;5026748;28;20097;-75
2022/08/19 10:33:59;;;;;;;8.95;8.23;;;31.30;66.00;;;;;;5026238;28;20219;-74
2022/08/19 10:36:31;;;;;;;7.95;7.20;;;31.30;66.30;;;;;;5032525;28;20044;-76
2022/08/19 10:39:01;;;;;;;6.15;4.57;;;31.30;64.50;;;;;;5029030;28;20124;-74
2022/08/19 10:41:31;;;;;;;5.45;4.95;;;31.20;65.10;;;;;;5033025;28;20072;-74
2022/08/19 10:44:01;;;;;;;5.53;5.03;;;31.00;63.80;;;;;;5012476;28;20060;-73
2022/08/19 10:46:27;;;;;;;5.88;4.82;;;30.50;64.40;;;;;;5013746;28;20049;-74
2022/08/19 10:48:54;;;;;;;6.18;5.57;;;30.10;66.70;;;;;;5035297;28;20064;-74
2022/08/19 10:54:05;;;;;;;6.47;5.43;;;30.00;66.40;;;;;;5028574;28;20046;-73
2022/08/19 10:59:17;;;;;;;19.90;18.17;;;30.40;66.20;;;;;;5036578;28;20517;-75
2022/08/19 11:01:45;;;;;;;7.57;6.97;;;30.70;65.40;;;;;;5038223;28;20087;-74
2022/08/19 11:04:13;;;;;;;6.38;5.70;;;31.00;64.50;;;;;;5034888;28;20049;-74
2022/08/19 11:06:43;;;;;;;6.10;5.50;;;31.10;64.60;;;;;;5019552;28;20477;-74
2022/08/19 11:09:10;;;;;;;9.00;8.10;;;31.00;64.80;;;;;;5043930;28;20068;-76
2022/08/19 11:11:40;;;;;;;18.90;17.42;;;30.80;66.10;;;;;;5036345;28;20041;-74
2022/08/19 11:14:10;;;;;;;7.40;6.10;;;30.60;67.20;;;;;;5029449;28;20041;-74
2022/08/19 11:16:40;;;;;;;10.60;7.15;;;30.40;67.80;;;;;;5051127;28;20119;-74
2022/08/19 11:19:08;;;;;;;7.13;6.30;;;30.30;68.70;;;;;;5039313;28;20080;-74
2022/08/19 11:21:39;;;;;;;8.43;7.55;;;30.30;69.80;;;;;;5022674;28;20041;-75
2022/08/19 11:24:12;;;;;;;9.20;8.25;;;30.40;68.60;;;;;;5035752;28;20469;-74
2022/08/19 11:26:39;;;;;;;10.87;9.30;;;30.60;69.30;;;;;;5042837;28;20094;-75
2022/08/19 11:29:11;;;;;;;10.55;9.45;;;30.80;68.20;;;;;;5039636;28;20039;-74
2022/08/19 11:31:38;;;;;;;8.98;8.18;;;31.00;67.70;;;;;;5030958;28;20507;-73
2022/08/19 11:34:07;;;;;;;10.70;8.07;;;30.90;67.50;;;;;;5024978;28;20132;-74
2022/08/19 11:36:34;;;;;;;9.00;7.88;;;30.70;66.20;;;;;;5032579;28;20051;-74
2022/08/19 11:39:00;;;;;;;8.23;6.57;;;30.50;66.00;;;;;;5032460;28;20059;-74
2022/08/19 11:41:26;;;;;;;7.07;6.55;;;30.40;65.30;;;;;;5030291;28;20051;-74
2022/08/19 11:43:54;;;;;;;6.88;6.32;;;30.50;66.40;;;;;;5031445;28;20096;-74
2022/08/19 11:46:22;;;;;;;6.60;5.70;;;30.60;65.90;;;;;;5039741;28;20048;-74
2022/08/19 11:48:50;;;;;;;4.82;4.32;;;30.70;65.40;;;;;;5056933;28;20037;-74
2022/08/19 11:51:20;;;;;;;4.10;3.70;;;30.80;64.50;;;;;;5037850;28;20049;-74
2022/08/19 11:53:46;;;;;;;5.18;4.07;;;31.10;63.00;;;;;;5055179;28;20068;-73
2022/08/19 11:56:12;;;;;;;4.68;4.03;;;31.60;63.40;;;;;;5031790;28;20501;-74
2022/08/19 11:58:41;;;;;;;5.20;4.65;;;32.10;61.20;;;;;;5027113;28;20098;-73
2022/08/19 12:01:09;;;;;;;17.55;16.08;;;32.50;60.20;;;;;;5018298;28;20131;-73
2022/08/19 12:03:35;;;;;;;8.43;7.38;;;32.60;59.40;;;;;;5006783;28;20489;-75
2022/08/19 12:06:06;;;;;;;4.00;3.60;;;32.50;59.40;;;;;;5026321;28;20037;-73
2022/08/19 12:08:32;;;;;;;3.22;2.92;;;32.80;59.00;;;;;;5028148;28;20053;-74
2022/08/19 12:11:00;;;;;;;4.45;2.75;;;32.70;55.90;;;;;;5034378;28;20033;-75
2022/08/19 12:13:27;;;;;;;3.95;3.55;;;32.70;56.30;;;;;;5022497;28;20049;-74
2022/08/19 12:15:53;;;;;;;4.88;3.15;;;32.70;56.80;;;;;;5026268;28;20040;-73
2022/08/19 12:18:19;;;;;;;3.85;3.33;;;32.80;56.70;;;;;;5011934;28;20025;-75
2022/08/19 12:20:46;;;;;;;29.33;26.60;;;33.10;56.00;;;;;;5032049;28;20040;-75
2022/08/19 12:23:12;;;;;;;2.17;1.70;;;33.20;55.50;;;;;;5043405;28;20045;-74
2022/08/19 12:25:51;;;;;;;3.33;1.98;;;33.30;52.20;;;;;;5028623;28;20049;-75
2022/08/19 12:28:22;;;;;;;2.92;2.42;;;33.50;50.10;;;;;;5038252;28;20084;-75
2022/08/19 12:30:51;;;;;;;2.38;2.17;;;33.30;51.80;;;;;;5007702;28;20041;-76
2022/08/19 12:33:18;;;;;;;3.20;2.30;;;33.50;53.80;;;;;;5007413;28;20053;-75
2022/08/19 12:35:46;;;;;;;4.72;2.33;;;33.60;52.30;;;;;;5024547;28;20049;-74
2022/08/19 12:38:13;;;;;;;4.32;2.05;;;33.80;51.70;;;;;;5025051;28;20049;-75
2022/08/19 12:40:39;;;;;;;3.30;2.97;;;34.10;51.40;;;;;;5029779;28;20053;-74
2022/08/19 12:43:06;;;;;;;3.70;2.58;;;34.40;51.50;;;;;;5025408;28;20057;-74
2022/08/19 12:45:32;;;;;;;3.75;2.35;;;34.60;50.30;;;;;;5044380;28;20040;-73
2022/08/19 12:47:58;;;;;;;2.80;2.60;;;34.70;49.40;;;;;;5026532;28;20026;-74
2022/08/19 12:50:24;;;;;;;3.47;2.70;;;34.80;49.30;;;;;;5026505;28;20048;-74
2022/08/19 12:52:50;;;;;;;4.18;3.50;;;34.90;50.50;;;;;;5032737;28;20111;-73
2022/08/19 12:55:18;;;;;;;3.30;2.97;;;34.90;49.30;;;;;;5049251;28;20037;-73
2022/08/19 12:57:44;;;;;;;3.60;2.53;;;34.90;50.00;;;;;;5012520;28;20049;-74
2022/08/19 13:00:14;;;;;;;4.05;2.40;;;34.90;49.60;;;;;;5007295;28;20489;-74
2022/08/19 13:02:44;;;;;;;4.65;3.08;;;34.80;49.40;;;;;;5005888;28;20111;-73
2022/08/19 13:05:15;;;;;;;5.38;3.72;;;34.60;49.30;;;;;;5006311;28;20045;-74
2022/08/19 13:07:43;;;;;;;4.05;2.65;;;34.50;48.50;;;;;;5003660;28;20373;-73